Time;durP1;ratioP1;P1;durP2;ratioP2;P2;SDS_P1;SDS_P2;PMS_P1;PMS_P2;Temp;Humidity;BMP_temperature;BMP_pressure;BME280_temperature;BME280_humidity;BME280_pressure;Samples;Min_cycle;Max_cycle;Signal;HPM_P1;HPM_P2
2023/06/17 00:00:20;;;;;;;18.25;9.98;;;;;;;18.78;46.84;99491.00;5094247;28;20028;-61
2023/06/17 00:02:46;;;;;;;21.83;9.90;;;;;;;18.77;46.48;99494.72;5075935;28;20042;-63
2023/06/17 00:05:11;;;;;;;19.80;9.95;;;;;;;18.73;46.72;99490.72;5074170;28;20119;-61
2023/06/17 00:07:39;;;;;;;16.58;9.60;;;;;;;18.67;47.12;99488.75;5073857;28;20107;-62
2023/06/17 00:10:06;;;;;;;16.02;9.98;;;;;;;18.67;47.00;99496.88;5074100;28;20466;-61
2023/06/17 00:12:31;;;;;;;15.13;10.98;;;;;;;18.63;46.91;99495.59;5073642;28;20039;-62
2023/06/17 00:15:01;;;;;;;13.73;9.73;;;;;;;18.61;47.43;99498.47;5073635;28;20033;-62
2023/06/17 00:17:32;;;;;;;17.50;13.13;;;;;;;18.58;47.94;99496.13;5073273;28;20052;-61
2023/06/17 00:20:00;;;;;;;18.95;12.70;;;;;;;18.55;47.54;99499.22;5072297;28;20178;-62
2023/06/17 00:22:29;;;;;;;15.20;10.15;;;;;;;18.50;47.36;99488.91;5073339;28;20777;-61
2023/06/17 00:24:58;;;;;;;18.17;12.60;;;;;;;18.54;47.20;99492.09;5073292;28;20032;-62
2023/06/17 00:27:23;;;;;;;16.02;10.65;;;;;;;18.46;47.63;99490.31;5073093;28;20075;-62
2023/06/17 00:29:49;;;;;;;19.27;11.93;;;;;;;18.42;47.24;99491.69;5073488;28;20056;-62
2023/06/17 00:32:14;;;;;;;17.92;10.35;;;;;;;18.42;47.00;99491.69;5072948;28;20064;-61
2023/06/17 00:34:40;;;;;;;16.65;10.10;;;;;;;18.43;47.14;99504.22;5073248;28;20040;-63
2023/06/17 00:37:05;;;;;;;15.88;9.73;;;;;;;18.42;47.11;99502.56;5073588;28;20024;-61
2023/06/17 00:39:31;;;;;;;15.23;9.95;;;;;;;18.43;47.21;99501.53;5073108;28;20032;-60
2023/06/17 00:41:57;;;;;;;18.85;9.45;;;;;;;18.44;46.94;99511.34;5074318;28;20056;-63
2023/06/17 00:44:22;;;;;;;15.00;9.48;;;;;;;18.40;47.60;99496.47;5072733;28;20435;-62
2023/06/17 00:46:52;;;;;;;14.63;9.85;;;;;;;18.39;47.41;99505.63;5072457;28;20033;-61
2023/06/17 00:49:19;;;;;;;12.65;9.48;;;;;;;18.36;47.28;99500.56;5073237;28;20029;-62
2023/06/17 00:51:45;;;;;;;16.20;9.93;;;;;;;18.40;47.55;99520.00;5073945;28;20033;-61
2023/06/17 00:54:12;;;;;;;12.18;9.02;;;;;;;18.38;47.39;99520.22;5074092;28;20035;-63
2023/06/17 00:56:39;;;;;;;15.38;9.23;;;;;;;18.36;47.53;99514.13;5073351;28;20028;-63
2023/06/17 00:59:06;;;;;;;12.65;9.95;;;;;;;18.33;47.30;99512.63;5071824;28;20178;-61
2023/06/17 01:01:35;;;;;;;19.20;10.30;;;;;;;18.36;47.62;99511.41;5073994;28;20036;-61
2023/06/17 01:04:02;;;;;;;11.80;9.50;;;;;;;18.34;47.40;99517.00;5072773;28;20092;-62
2023/06/17 01:06:38;;;;;;;10.90;9.48;;;;;;;18.35;47.23;99513.28;5072549;28;20028;-61
2023/06/17 01:09:06;;;;;;;;;;;;;;;18.66;45.64;99516.91;5072914;28;20032;-61
2023/06/17 01:11:34;;;;;;;14.85;10.80;;;;;;;18.44;47.33;99508.63;5072605;28;19920;-62
2023/06/17 01:14:01;;;;;;;14.77;9.57;;;;;;;18.38;47.36;99517.50;5072562;28;20028;-60
2023/06/17 01:16:28;;;;;;;13.75;9.75;;;;;;;18.34;47.52;99514.28;5072601;28;20115;-61
2023/06/17 01:18:55;;;;;;;14.40;10.40;;;;;;;18.37;47.28;99510.38;5072523;28;20398;-60
2023/06/17 01:21:22;;;;;;;13.50;10.57;;;;;;;18.39;47.65;99512.91;5071329;28;20028;-60
2023/06/17 01:23:52;;;;;;;11.23;9.05;;;;;;;18.38;47.63;99506.66;5072585;28;20039;-62
2023/06/17 01:26:21;;;;;;;14.68;8.85;;;;;;;18.46;47.77;99514.69;5072463;28;20040;-61
2023/06/17 01:28:48;;;;;;;14.05;9.23;;;;;;;18.45;47.55;99509.47;5071886;28;20046;-62
2023/06/17 01:31:18;;;;;;;13.63;11.00;;;;;;;18.50;47.99;99512.47;5072139;28;20033;-63
2023/06/17 01:33:50;;;;;;;11.95;9.00;;;;;;;18.57;47.56;99505.28;5072263;28;20025;-63
2023/06/17 01:36:22;;;;;;;15.75;8.90;;;;;;;18.62;47.56;99513.69;5071951;28;20028;-61
2023/06/17 01:38:51;;;;;;;13.77;9.30;;;;;;;18.61;47.93;99501.19;5072237;28;20082;-62
2023/06/17 01:41:29;;;;;;;17.38;9.57;;;;;;;18.62;47.35;99505.56;5072077;28;20037;-61
2023/06/17 01:43:57;;;;;;;10.40;8.85;;;;;;;18.69;47.14;99508.38;5071635;28;20029;-61
2023/06/17 01:46:24;;;;;;;11.13;8.93;;;;;;;18.71;47.16;99510.94;5072260;28;20086;-61
2023/06/17 01:48:52;;;;;;;10.25;8.57;;;;;;;18.77;47.35;99519.16;5071212;28;20404;-62
2023/06/17 01:51:19;;;;;;;15.38;8.43;;;;;;;18.57;47.24;99480.06;5073096;28;20039;-61
2023/06/17 01:53:46;;;;;;;10.85;8.50;;;;;;;18.80;46.95;99507.91;5072014;28;20028;-62
2023/06/17 01:56:12;;;;;;;12.45;8.88;;;;;;;18.80;47.07;99491.66;5072580;28;20029;-61
2023/06/17 01:58:38;;;;;;;12.75;8.95;;;;;;;18.99;46.23;99503.00;5072029;28;20107;-61
2023/06/17 02:01:04;;;;;;;13.38;9.43;;;;;;;18.91;46.62;99486.81;5075018;28;20296;-61
2023/06/17 02:03:30;;;;;;;14.80;9.48;;;;;;;19.14;46.03;99504.91;5072309;28;20436;-62
2023/06/17 02:05:56;;;;;;;12.40;9.10;;;;;;;19.06;45.53;99476.84;5071948;28;20025;-61
2023/06/17 02:08:24;;;;;;;12.98;9.10;;;;;;;19.34;45.12;99500.56;5089947;28;20510;-62
2023/06/17 02:10:50;;;;;;;12.35;8.38;;;;;;;19.35;45.06;99495.97;5090620;28;20044;-62
2023/06/17 02:13:15;;;;;;;17.10;8.20;;;;;;;19.47;45.22;99513.47;5092191;28;20501;-65
2023/06/17 02:15:42;;;;;;;14.88;8.65;;;;;;;19.56;45.39;99500.63;5092432;28;20113;-61
2023/06/17 02:18:09;;;;;;;15.05;8.60;;;;;;;19.70;44.63;99517.06;5092336;28;20418;-62
2023/06/17 02:20:35;;;;;;;11.70;9.15;;;;;;;19.83;44.52;99516.38;5090063;28;20471;-61
2023/06/17 02:23:00;;;;;;;13.27;8.80;;;;;;;19.78;44.75;99489.81;5092179;28;20704;-62
2023/06/17 02:25:26;;;;;;;14.27;8.75;;;;;;;20.08;44.58;99517.72;5085168;28;20370;-62
2023/06/17 02:27:52;;;;;;;13.85;8.68;;;;;;;20.26;44.46;99515.59;5072184;28;20328;-62
2023/06/17 02:30:17;;;;;;;13.27;8.18;;;;;;;20.44;43.21;99510.50;5071105;28;20150;-61
2023/06/17 02:32:43;;;;;;;17.23;7.97;;;;;;;20.73;42.83;99514.06;5072233;28;20077;-61
2023/06/17 02:35:10;;;;;;;12.35;8.40;;;;;;;21.02;41.67;99514.09;5071880;28;20032;-61
2023/06/17 02:37:36;;;;;;;12.07;7.70;;;;;;;21.34;40.77;99517.19;5072087;28;20028;-60
2023/06/17 02:40:06;;;;;;;10.27;8.27;;;;;;;21.60;41.16;99516.47;5077111;28;20024;-60
2023/06/17 02:42:31;;;;;;;12.80;8.15;;;;;;;21.97;39.72;99526.25;5091941;28;20042;-61
2023/06/17 02:44:57;;;;;;;11.55;7.70;;;;;;;22.17;38.89;99509.94;5091991;28;20025;-61
2023/06/17 02:47:22;;;;;;;10.18;8.15;;;;;;;22.32;38.59;99513.31;5092120;28;20035;-62
2023/06/17 02:49:48;;;;;;;15.35;8.52;;;;;;;22.51;38.43;99519.84;5090322;28;20044;-62
2023/06/17 02:52:13;;;;;;;13.77;7.60;;;;;;;22.60;38.34;99527.81;5091934;28;20028;-60
2023/06/17 02:54:39;;;;;;;13.32;8.15;;;;;;;22.79;38.29;99524.22;5092751;28;20385;-62
2023/06/17 02:57:05;;;;;;;13.00;7.82;;;;;;;23.12;37.84;99516.19;5094336;28;20361;-64
2023/06/17 02:59:33;;;;;;;11.00;7.55;;;;;;;23.54;36.78;99513.97;5093562;28;20059;-61
2023/06/17 03:01:59;;;;;;;11.27;8.00;;;;;;;23.91;35.74;99492.34;5055202;28;20025;-61
2023/06/17 03:04:25;;;;;;;10.75;8.13;;;;;;;24.54;34.24;99513.56;5055237;28;20474;-62
2023/06/17 03:06:52;;;;;;;12.43;7.43;;;;;;;25.01;33.16;99522.19;5055263;28;20044;-63
2023/06/17 03:09:18;;;;;;;11.40;7.60;;;;;;;25.54;32.71;99511.72;5055130;28;20120;-65
2023/06/17 03:11:43;;;;;;;7.88;7.03;;;;;;;25.86;31.09;99506.03;5075499;28;20051;-61
2023/06/17 03:14:09;;;;;;;16.65;7.10;;;;;;;26.34;30.52;99511.69;5074691;28;20158;-62
2023/06/17 03:16:36;;;;;;;10.05;6.53;;;;;;;26.72;29.87;99512.31;5075039;28;20044;-61
2023/06/17 03:19:02;;;;;;;11.75;7.60;;;;;;;27.11;28.54;99525.56;5074596;28;20048;-61
2023/06/17 03:21:29;;;;;;;9.07;7.07;;;;;;;27.43;27.78;99527.88;5074211;28;20348;-62
2023/06/17 03:23:58;;;;;;;11.93;7.18;;;;;;;27.72;27.76;99514.19;5074784;28;20032;-61
2023/06/17 03:26:25;;;;;;;12.48;7.05;;;;;;;27.84;27.49;99517.75;5074643;28;20024;-61
2023/06/17 03:28:50;;;;;;;8.82;6.20;;;;;;;27.90;26.24;99503.00;5074397;28;20076;-61
2023/06/17 03:31:20;;;;;;;11.70;6.55;;;;;;;27.86;26.55;99479.81;5085940;28;20032;-61
2023/06/17 03:33:49;;;;;;;10.65;5.90;;;;;;;28.23;26.63;99517.09;5094839;28;20039;-62
2023/06/17 03:36:17;;;;;;;8.35;6.13;;;;;;;28.44;25.56;99511.94;5078006;28;20046;-63
2023/06/17 03:38:44;;;;;;;8.50;5.57;;;;;;;28.75;24.90;99512.41;5074357;28;20025;-61
2023/06/17 03:41:09;;;;;;;12.68;6.30;;;;;;;28.94;24.15;99494.53;5073481;28;20067;-61
2023/06/17 03:43:35;;;;;;;6.53;5.70;;;;;;;29.40;24.02;99503.66;5074428;28;20060;-61
2023/06/17 03:46:00;;;;;;;7.38;5.65;;;;;;;29.55;23.31;99490.09;5074105;28;20428;-62
2023/06/17 03:48:26;;;;;;;8.15;5.53;;;;;;;29.83;23.41;99515.78;5073883;28;20039;-62
2023/06/17 03:50:51;;;;;;;6.20;5.60;;;;;;;30.01;23.10;99513.75;5075286;28;20089;-61
2023/06/17 03:53:17;;;;;;;8.85;5.70;;;;;;;30.18;22.46;99500.72;5073933;28;20025;-62
2023/06/17 03:55:42;;;;;;;9.10;5.57;;;;;;;30.55;22.37;99509.28;5073606;28;20443;-63
2023/06/17 03:58:08;;;;;;;10.82;5.65;;;;;;;31.06;21.67;99515.16;5078207;28;20115;-62
2023/06/17 04:00:35;;;;;;;10.90;5.53;;;;;;;31.64;21.31;99517.13;5075666;28;20362;-62
2023/06/17 04:03:01;;;;;;;8.00;5.60;;;;;;;32.09;20.86;99505.63;5073358;28;20044;-63
2023/06/17 04:05:32;;;;;;;8.32;5.85;;;;;;;32.44;20.27;99503.97;5073593;28;20089;-62
2023/06/17 04:07:59;;;;;;;7.55;5.35;;;;;;;32.83;19.88;99512.81;5070699;28;20024;-61
2023/06/17 04:10:25;;;;;;;6.38;5.30;;;;;;;33.35;19.68;99508.78;5072617;28;20028;-62
2023/06/17 04:12:51;;;;;;;9.57;5.60;;;;;;;33.77;18.76;99483.63;5073531;28;20074;-67
2023/06/17 04:15:17;;;;;;;6.53;5.55;;;;;;;34.31;18.43;99506.03;5072490;28;20113;-60
2023/06/17 04:17:43;;;;;;;10.27;5.90;;;;;;;34.40;18.10;99504.28;5073837;28;20246;-63
2023/06/17 04:20:12;;;;;;;7.95;5.82;;;;;;;34.63;17.93;99507.44;5074058;28;20234;-63
2023/06/17 04:22:39;;;;;;;11.00;6.03;;;;;;;34.91;17.92;99496.56;5070166;28;20054;-64
2023/06/17 04:25:05;;;;;;;8.60;6.25;;;;;;;35.58;17.38;99520.88;5072770;28;20024;-63
2023/06/17 04:27:31;;;;;;;8.95;5.97;;;;;;;36.05;16.33;99523.88;5071765;28;20447;-63
2023/06/17 04:29:57;;;;;;;8.57;6.18;;;;;;;36.60;16.29;99516.00;5073449;28;20035;-63
2023/06/17 04:32:26;;;;;;;8.73;5.93;;;;;;;36.96;15.84;99520.94;5076910;28;20024;-64
2023/06/17 04:34:52;;;;;;;8.23;6.00;;;;;;;37.34;15.38;99526.31;5072898;28;20035;-66
2023/06/17 04:37:18;;;;;;;9.93;6.22;;;;;;;37.49;15.25;99518.78;5092829;28;20040;-63
2023/06/17 04:39:44;;;;;;;9.57;5.72;;;;;;;37.90;15.04;99520.66;5093272;28;20035;-64
2023/06/17 04:42:10;;;;;;;9.82;6.40;;;;;;;38.43;14.62;99518.28;5092086;28;20032;-63
2023/06/17 04:44:39;;;;;;;8.43;5.82;;;;;;;39.40;14.10;99543.19;5093227;28;20169;-63
2023/06/17 04:47:09;;;;;;;9.95;6.95;;;;;;;40.06;13.37;99539.50;5091438;28;20058;-63
2023/06/17 04:49:41;;;;;;;10.57;6.85;;;;;;;40.36;12.83;99544.44;5053127;28;20059;-64
2023/06/17 04:52:13;;;;;;;9.63;6.60;;;;;;;40.73;13.41;99540.09;5073707;28;20027;-63
2023/06/17 04:54:40;;;;;;;7.03;5.95;;;;;;;41.03;12.36;99545.78;5073606;28;20151;-63
2023/06/17 04:57:06;;;;;;;13.57;6.28;;;;;;;41.63;12.52;99541.38;5089202;28;20120;-62
2023/06/17 04:59:32;;;;;;;9.05;5.97;;;;;;;42.44;11.78;99541.22;5093217;28;20070;-63
2023/06/17 05:01:57;;;;;;;12.27;6.60;;;;;;;42.93;11.39;99551.84;5079196;28;20048;-62
2023/06/17 05:04:23;;;;;;;8.13;5.95;;;;;;;43.19;11.50;99542.22;5071925;28;20141;-63
2023/06/17 05:06:48;;;;;;;9.48;6.00;;;;;;;43.40;11.14;99544.09;5072596;28;20181;-63
2023/06/17 05:09:14;;;;;;;9.63;6.43;;;;;;;43.43;10.88;99551.88;5072718;28;20032;-62
2023/06/17 05:11:40;;;;;;;6.78;6.13;;;;;;;43.56;11.07;99539.38;5072611;28;20031;-63
2023/06/17 05:14:06;;;;;;;9.43;6.10;;;;;;;44.06;10.25;99546.94;5055135;28;20033;-62
2023/06/17 05:16:32;;;;;;;9.05;6.03;;;;;;;44.54;10.08;99547.94;5071191;28;20074;-62
2023/06/17 05:18:57;;;;;;;8.60;6.05;;;;;;;44.79;9.63;99538.47;5072807;28;20055;-63
2023/06/17 05:21:23;;;;;;;8.80;5.95;;;;;;;45.06;9.53;99550.91;5074013;28;20037;-63
2023/06/17 05:23:50;;;;;;;8.88;5.43;;;;;;;45.51;8.73;99548.75;5072162;28;20035;-62
2023/06/17 05:26:15;;;;;;;8.50;6.00;;;;;;;46.12;8.97;99546.50;5071985;28;20024;-62
2023/06/17 05:28:41;;;;;;;9.18;5.50;;;;;;;46.48;8.43;99552.03;5072080;28;20043;-64
2023/06/17 05:31:07;;;;;;;7.70;5.50;;;;;;;46.30;8.52;99540.34;5072868;28;20462;-61
2023/06/17 05:33:32;;;;;;;8.02;5.53;;;;;;;46.36;8.72;99547.38;5072187;28;20127;-61
2023/06/17 05:36:00;;;;;;;12.30;5.70;;;;;;;46.88;8.25;99535.78;5071861;28;20037;-60
2023/06/17 05:38:27;;;;;;;11.02;6.13;;;;;;;47.51;7.84;99527.91;5072339;28;20462;-64
2023/06/17 05:40:52;;;;;;;8.95;6.18;;;;;;;47.28;8.25;99545.81;5072141;28;20044;-61
2023/06/17 05:43:18;;;;;;;8.82;5.82;;;;;;;47.06;8.33;99543.81;5069929;28;20032;-61
2023/06/17 05:45:44;;;;;;;11.02;5.90;;;;;;;47.75;8.09;99548.53;5070909;28;20024;-60
2023/06/17 05:48:09;;;;;;;10.85;5.63;;;;;;;48.63;7.69;99542.66;5070943;28;20028;-60
2023/06/17 05:50:35;;;;;;;8.43;5.28;;;;;;;48.96;7.29;99543.81;5070857;28;20103;-62
2023/06/17 05:53:00;;;;;;;14.45;6.18;;;;;;;48.89;7.42;99552.25;5074131;28;20181;-60
2023/06/17 05:55:26;;;;;;;5.95;5.35;;;;;;;48.80;7.22;99532.69;5074321;28;20075;-63
2023/06/17 05:57:52;;;;;;;9.50;5.43;;;;;;;48.58;7.66;99545.88;5071533;28;20028;-60
2023/06/17 06:00:18;;;;;;;8.50;5.85;;;;;;;48.63;7.13;99551.19;5070935;28;20352;-61
2023/06/17 06:02:44;;;;;;;10.45;5.50;;;;;;;49.22;7.08;99547.69;5071156;28;20036;-57
2023/06/17 06:05:10;;;;;;;11.18;5.63;;;;;;;49.50;6.66;99520.66;5072019;28;20044;-59
2023/06/17 06:07:35;;;;;;;8.27;5.45;;;;;;;50.20;6.51;99545.34;5072430;28;20454;-59
2023/06/17 06:10:05;;;;;;;7.18;5.10;;;;;;;50.13;6.77;99540.44;5072192;28;20082;-57
2023/06/17 06:12:31;;;;;;;10.70;5.80;;;;;;;50.08;6.11;99506.69;5071729;28;20098;-60
2023/06/17 06:14:57;;;;;;;10.00;5.50;;;;;;;50.61;6.34;99512.91;5072311;28;20024;-59
2023/06/17 06:17:24;;;;;;;9.45;5.65;;;;;;;51.20;6.22;99545.91;5072188;28;20459;-57
2023/06/17 06:19:50;;;;;;;13.20;6.22;;;;;;;50.79;6.38;99546.31;5071609;28;20467;-57
2023/06/17 06:22:16;;;;;;;8.20;5.40;;;;;;;51.11;5.87;99531.25;5072724;28;20123;-57
2023/06/17 06:24:41;;;;;;;12.52;5.75;;;;;;;51.83;5.80;99508.25;5071956;28;20448;-57
2023/06/17 06:27:07;;;;;;;8.20;5.25;;;;;;;52.50;4.79;99532.41;5071929;28;20034;-56
2023/06/17 06:29:32;;;;;;;6.40;5.15;;;;;;;52.45;4.74;99530.00;5073435;28;20028;-56
2023/06/17 06:31:58;;;;;;;8.18;5.70;;;;;;;52.36;5.00;99533.31;5074979;28;20029;-64
2023/06/17 06:34:23;;;;;;;10.77;5.63;;;;;;;52.81;5.43;99538.28;5075827;28;20063;-55
2023/06/17 06:36:49;;;;;;;14.30;6.00;;;;;;;53.01;5.31;99527.09;5075638;28;20055;-58
2023/06/17 06:39:15;;;;;;;22.52;6.47;;;;;;;52.56;4.94;99539.28;5094887;28;20093;-58
2023/06/17 06:41:40;;;;;;;7.93;5.90;;;;;;;52.31;5.22;99525.97;5091197;28;20040;-58
2023/06/17 06:44:06;;;;;;;12.75;6.30;;;;;;;51.11;5.77;99525.53;5075428;28;20078;-57
2023/06/17 06:46:33;;;;;;;10.77;6.20;;;;;;;49.96;6.08;99533.47;5075474;28;20028;-56
2023/06/17 06:48:58;;;;;;;16.13;6.00;;;;;;;49.95;6.41;99531.84;5075539;28;20048;-59
2023/06/17 06:51:24;;;;;;;8.25;5.10;;;;;;;50.63;4.99;99499.09;5076242;28;20482;-59
2023/06/17 06:53:49;;;;;;;5.35;4.85;;;;;;;51.35;4.62;99535.31;5075223;28;20082;-57
2023/06/17 06:56:15;;;;;;;7.18;5.15;;;;;;;51.61;4.36;99536.06;5075404;28;20058;-57
2023/06/17 06:58:40;;;;;;;5.50;5.10;;;;;;;52.09;3.97;99543.25;5075331;28;20080;-55
2023/06/17 07:01:06;;;;;;;6.35;4.70;;;;;;;53.11;3.91;99542.56;5075911;28;20426;-57
2023/06/17 07:03:32;;;;;;;5.93;5.38;;;;;;;54.35;3.86;99542.72;5075102;28;20040;-54
2023/06/17 07:05:58;;;;;;;10.10;5.40;;;;;;;55.04;3.80;99540.84;5075550;28;20028;-58
2023/06/17 07:08:24;;;;;;;9.73;5.95;;;;;;;55.15;3.40;99544.31;5075004;28;20374;-57
2023/06/17 07:10:49;;;;;;;7.78;5.90;;;;;;;55.70;3.08;99531.81;5074806;28;20024;-65
2023/06/17 07:13:17;;;;;;;7.25;6.03;;;;;;;55.20;3.73;99531.53;5093220;28;20035;-58
2023/06/17 07:15:44;;;;;;;7.50;6.50;;;;;;;53.81;4.66;99538.56;5095314;28;20020;-62
2023/06/17 07:18:10;;;;;;;8.02;6.00;;;;;;;52.08;4.95;99550.16;5093631;28;20055;-59
2023/06/17 07:20:37;;;;;;;6.55;5.72;;;;;;;50.25;5.42;99544.97;5093220;28;20044;-56
2023/06/17 07:23:02;;;;;;;8.35;6.32;;;;;;;50.17;6.15;99531.13;5092888;28;20028;-60
2023/06/17 07:25:28;;;;;;;6.85;6.15;;;;;;;49.97;6.34;99525.78;5094215;28;20035;-56
2023/06/17 07:27:56;;;;;;;7.32;5.60;;;;;;;50.02;5.77;99536.75;5094974;28;20035;-59
2023/06/17 07:30:22;;;;;;;9.43;5.35;;;;;;;50.47;5.82;99521.44;5094622;28;20176;-56
2023/06/17 07:32:48;;;;;;;6.13;5.53;;;;;;;51.40;4.97;99522.69;5092587;28;20131;-59
2023/06/17 07:35:13;;;;;;;12.48;5.68;;;;;;;51.45;5.03;99527.97;5094697;28;20024;-58
2023/06/17 07:37:39;;;;;;;5.55;5.03;;;;;;;51.43;4.81;99533.25;5092400;28;20038;-60
2023/06/17 07:40:06;;;;;;;6.03;5.20;;;;;;;51.39;4.77;99536.13;5093718;28;20028;-58
2023/06/17 07:42:32;;;;;;;7.18;5.15;;;;;;;51.62;4.58;99486.31;5081107;28;20040;-57
2023/06/17 07:44:57;;;;;;;9.65;5.30;;;;;;;51.73;4.98;99506.28;5074246;28;20024;-58
2023/06/17 07:47:23;;;;;;;5.85;5.03;;;;;;;51.59;4.71;99521.41;5074114;28;20433;-59
2023/06/17 07:49:49;;;;;;;7.95;5.40;;;;;;;50.32;5.74;99503.53;5074044;28;20032;-58
2023/06/17 07:52:14;;;;;;;5.72;4.90;;;;;;;49.23;6.54;99520.88;5074225;28;20367;-56
2023/06/17 07:54:41;;;;;;;8.18;5.28;;;;;;;48.98;6.16;99526.34;5073784;28;20025;-55
2023/06/17 07:57:06;;;;;;;5.00;4.50;;;;;;;46.99;6.48;99525.47;5073731;28;20024;-55
2023/06/17 07:59:32;;;;;;;4.95;4.43;;;;;;;45.07;7.50;99527.13;5073003;28;20028;-57
2023/06/17 08:01:58;;;;;;;4.70;4.30;;;;;;;43.08;8.34;99526.94;5074836;28;20030;-56
2023/06/17 08:04:25;;;;;;;5.15;4.50;;;;;;;41.75;9.75;99531.03;5074312;28;20362;-52
2023/06/17 08:06:51;;;;;;;17.38;5.15;;;;;;;40.07;10.80;99526.28;5073623;28;20032;-54
2023/06/17 08:09:17;;;;;;;7.88;5.13;;;;;;;38.44;12.64;99530.31;5073463;28;20097;-56
2023/06/17 08:11:42;;;;;;;13.05;5.20;;;;;;;37.08;13.87;99502.88;5073464;28;20420;-51
2023/06/17 08:14:08;;;;;;;11.70;5.47;;;;;;;36.58;14.46;99535.00;5073774;28;20033;-54
2023/06/17 08:16:33;;;;;;;7.35;5.75;;;;;;;36.63;13.92;99529.31;5073496;28;20132;-62
2023/06/17 08:18:59;;;;;;;16.13;6.53;;;;;;;35.92;14.62;99519.81;5071343;28;20052;-61
2023/06/17 08:21:24;;;;;;;10.48;6.38;;;;;;;35.40;15.10;99541.13;5087609;28;20367;-52
2023/06/17 08:23:50;;;;;;;14.02;5.78;;;;;;;34.47;15.88;99548.41;5073254;28;20036;-51
2023/06/17 08:26:16;;;;;;;6.32;5.57;;;;;;;33.85;16.56;99535.75;5073922;28;20051;-60
2023/06/17 08:28:41;;;;;;;7.97;5.85;;;;;;;33.51;16.61;99528.16;5092249;28;20133;-60
2023/06/17 08:31:07;;;;;;;14.98;5.78;;;;;;;33.53;16.32;99534.28;5091849;28;20443;-68
2023/06/17 08:33:32;;;;;;;7.15;5.97;;;;;;;33.54;16.43;99532.31;5089637;28;20028;-62
2023/06/17 08:35:58;;;;;;;6.00;5.47;;;;;;;33.30;16.13;99532.94;5079019;28;20482;-60
2023/06/17 08:38:23;;;;;;;7.63;6.22;;;;;;;32.71;16.68;99538.88;5073046;28;20358;-58
2023/06/17 08:40:49;;;;;;;6.43;5.75;;;;;;;32.40;17.41;99543.59;5072763;28;20029;-59
2023/06/17 08:43:19;;;;;;;8.73;5.80;;;;;;;32.67;16.84;99520.28;5073200;28;20063;-56
2023/06/17 08:45:49;;;;;;;6.35;5.72;;;;;;;33.25;16.70;99539.31;5071504;28;20029;-61
2023/06/17 08:48:16;;;;;;;6.72;5.95;;;;;;;33.31;16.26;99538.22;5072690;28;20040;-54
2023/06/17 08:50:42;;;;;;;6.75;6.07;;;;;;;33.19;16.63;99554.34;5071991;28;20028;-56
2023/06/17 08:53:08;;;;;;;7.25;6.30;;;;;;;32.74;17.13;99560.47;5074487;28;20040;-54
2023/06/17 08:55:34;;;;;;;8.13;6.47;;;;;;;32.43;17.39;99546.63;5072450;28;20060;-56
2023/06/17 08:58:01;;;;;;;9.02;6.32;;;;;;;32.14;17.95;99555.47;5072575;28;20040;-51
2023/06/17 09:00:26;;;;;;;7.90;6.50;;;;;;;31.74;18.13;99543.16;5072804;28;20032;-57
2023/06/17 09:02:54;;;;;;;7.40;6.72;;;;;;;31.60;18.12;99545.59;5070880;28;20044;-58
2023/06/17 09:05:20;;;;;;;6.55;5.95;;;;;;;31.41;18.81;99535.00;5072212;28;20076;-57
2023/06/17 09:07:45;;;;;;;13.07;6.40;;;;;;;31.69;18.55;99532.88;5072158;28;20028;-56
2023/06/17 09:10:15;;;;;;;11.60;6.43;;;;;;;32.21;18.40;99547.69;5072449;28;20072;-57
2023/06/17 09:12:40;;;;;;;10.23;6.30;;;;;;;32.62;17.66;99532.22;5072521;28;20036;-58
2023/06/17 09:15:08;;;;;;;10.57;6.43;;;;;;;32.81;16.77;99545.53;5071579;28;20036;-57
2023/06/17 09:17:37;;;;;;;7.88;6.60;;;;;;;32.56;16.84;99530.59;5072745;28;20047;-56
2023/06/17 09:20:13;;;;;;;9.00;6.40;;;;;;;32.46;16.91;99528.66;5072566;28;20041;-60
2023/06/17 09:22:45;;;;;;;8.40;6.00;;;;;;;32.50;17.90;99527.78;5071907;28;20048;-64
2023/06/17 09:25:13;;;;;;;14.43;6.18;;;;;;;32.28;17.49;99535.50;5072127;28;20036;-67
2023/06/17 09:27:50;;;;;;;6.63;6.03;;;;;;;32.38;17.91;99541.09;5071176;28;20025;-65
2023/06/17 09:30:16;;;;;;;11.15;6.90;;;;;;;32.32;17.79;99533.88;5070961;28;20029;-54
2023/06/17 09:32:43;;;;;;;7.40;6.10;;;;;;;32.15;17.15;99518.34;5072168;28;20043;-61
2023/06/17 09:35:11;;;;;;;10.63;6.28;;;;;;;31.83;17.80;99529.63;5070891;28;20419;-58
2023/06/17 09:37:37;;;;;;;7.68;6.65;;;;;;;31.64;17.74;99505.19;5072347;28;20101;-63
2023/06/17 09:40:06;;;;;;;7.10;6.10;;;;;;;31.71;18.19;99524.31;5071266;28;20028;-67
2023/06/17 09:42:31;;;;;;;9.68;7.05;;;;;;;31.76;18.18;99543.69;5071232;28;20043;-61
2023/06/17 09:45:03;;;;;;;8.57;6.18;;;;;;;31.30;18.40;99523.06;5071262;28;20032;-61
2023/06/17 09:47:33;;;;;;;8.70;6.22;;;;;;;31.33;18.42;99530.81;5071340;28;20028;-62
2023/06/17 09:50:03;;;;;;;8.52;6.70;;;;;;;31.17;18.92;99535.41;5072207;28;20032;-66
2023/06/17 09:52:35;;;;;;;8.27;6.75;;;;;;;31.05;18.24;99521.78;5073336;28;20035;-62
2023/06/17 09:55:05;;;;;;;6.72;6.10;;;;;;;31.06;18.30;99526.22;5071124;28;20508;-61
2023/06/17 09:57:32;;;;;;;11.32;6.50;;;;;;;30.97;18.58;99530.59;5071924;28;20115;-61
2023/06/17 10:00:06;;;;;;;7.05;6.25;;;;;;;31.24;17.78;99529.66;5079056;28;20043;-62
2023/06/17 10:02:33;;;;;;;11.20;6.93;;;;;;;31.13;17.98;99523.22;5082139;28;20029;-68
2023/06/17 10:04:59;;;;;;;9.43;7.10;;;;;;;31.10;18.18;99525.69;5074845;28;20039;-70
2023/06/17 10:07:25;;;;;;;10.23;6.93;;;;;;;31.20;17.58;99523.84;5091919;28;20035;-63
2023/06/17 10:09:52;;;;;;;8.32;6.78;;;;;;;31.45;17.48;99536.13;5087111;28;20081;-62
2023/06/17 10:12:21;;;;;;;7.68;6.78;;;;;;;31.59;17.27;99517.09;5076085;28;20028;-63
2023/06/17 10:14:48;;;;;;;9.20;7.07;;;;;;;31.78;16.13;99535.97;5075975;28;20032;-63
2023/06/17 10:17:16;;;;;;;9.80;6.68;;;;;;;31.51;16.16;99495.47;5074833;28;20492;-62
2023/06/17 10:19:43;;;;;;;9.60;6.68;;;;;;;31.61;16.22;99531.50;5074740;28;20036;-61
2023/06/17 10:22:13;;;;;;;9.95;6.82;;;;;;;31.72;17.24;99532.38;5075752;28;20195;-69
2023/06/17 10:24:39;;;;;;;8.07;6.97;;;;;;;31.72;17.11;99520.44;5076328;28;20021;-63
2023/06/17 10:27:07;;;;;;;8.38;6.47;;;;;;;31.68;17.41;99522.09;5076207;28;20086;-63
2023/06/17 10:29:33;;;;;;;7.15;6.50;;;;;;;31.70;17.28;99544.78;5075379;28;20040;-63
2023/06/17 10:32:17;;;;;;;7.95;6.80;;;;;;;31.64;17.46;99538.41;5075091;28;20374;-62
2023/06/17 10:35:05;;;;;;;7.70;6.93;;;;;;;31.19;17.84;99541.53;5076663;28;20068;-63
2023/06/17 10:37:37;;;;;;;7.65;6.78;;;;;;;30.94;18.11;99526.44;5075620;28;20054;-61
2023/06/17 10:40:23;;;;;;;8.55;6.68;;;;;;;31.12;17.99;99532.63;5081375;28;20024;-63
2023/06/17 10:42:56;;;;;;;9.38;6.68;;;;;;;31.09;17.88;99527.63;5095502;28;20397;-63
2023/06/17 10:45:21;;;;;;;8.15;7.35;;;;;;;31.17;18.03;99512.47;5095868;28;20097;-63
2023/06/17 10:47:47;;;;;;;8.40;7.05;;;;;;;31.47;18.15;99511.81;5095782;28;20416;-63
2023/06/17 10:50:12;;;;;;;12.02;7.18;;;;;;;31.68;17.57;99524.88;5081934;28;20413;-63
2023/06/17 10:52:39;;;;;;;8.18;7.35;;;;;;;31.55;17.00;99524.25;5075648;28;20358;-62
2023/06/17 10:55:05;;;;;;;8.07;7.20;;;;;;;31.24;17.69;99496.47;5075597;28;20047;-63
2023/06/17 10:57:39;;;;;;;8.25;7.45;;;;;;;31.21;17.83;99535.75;5091117;28;20896;-62
2023/06/17 11:00:10;;;;;;;9.48;8.00;;;;;;;30.78;17.87;99539.31;5080964;28;20097;-61
2023/06/17 11:02:37;;;;;;;10.52;7.15;;;;;;;30.47;17.99;99516.97;5073991;28;20041;-62
2023/06/17 11:05:03;;;;;;;8.48;7.68;;;;;;;30.33;18.41;99515.72;5074332;28;20142;-62
2023/06/17 11:07:30;;;;;;;10.15;7.70;;;;;;;30.42;18.48;99514.16;5075239;28;20047;-62
2023/06/17 11:09:56;;;;;;;9.35;7.97;;;;;;;30.41;18.89;99495.94;5073208;28;20459;-62
2023/06/17 11:12:21;;;;;;;13.88;7.97;;;;;;;30.61;19.31;99520.13;5074771;28;20024;-61
2023/06/17 11:14:47;;;;;;;8.82;7.93;;;;;;;30.57;19.27;99488.59;5074387;28;20029;-62
2023/06/17 11:17:13;;;;;;;8.98;7.82;;;;;;;30.87;18.82;99527.78;5074277;28;20032;-67
2023/06/17 11:19:38;;;;;;;11.60;7.57;;;;;;;30.89;18.55;99517.28;5076059;28;20079;-62
2023/06/17 11:22:04;;;;;;;13.02;8.48;;;;;;;30.63;18.72;99511.59;5073814;28;20067;-62
2023/06/17 11:24:31;;;;;;;11.50;7.30;;;;;;;30.64;19.17;99527.06;5073515;28;20416;-63
2023/06/17 11:26:58;;;;;;;9.50;8.30;;;;;;;30.70;18.28;99526.00;5073710;28;20040;-62
2023/06/17 11:29:26;;;;;;;9.35;7.55;;;;;;;30.67;18.68;99548.66;5073682;28;20021;-62